메인 페이지
METAR-TAF:

METAR-TAF

공항 :

야운데, 카메룬

위도: 03-50N, 경도: 011-31E, 고도: 751m

현재 날씨관측

예보는 24분 전, 19:00시(UTC)에 발표되었습니다.
온도 22°C
습도 94%
기압 1012 hPa
시정 10km 이상
고도 900ft 상공 구름 조금
고도 1600ft 상공 구름 보통
고도 1600ft 상공 구름 보통, 적란운.
뇌우, 약한비

METAR: FKYS 201900Z /////KT 9999 -TSRA FEW009 SCT016 SCT016CB 22/21 Q1012 TEMPO BKN006 FEW016CB

시각: 20:24 (19:24 UTC)

예보

예보는 2 시간 24분 전, 17:00시(UTC)에 발표되었습니다.
예보 대상 시간: 20일 18시부터 21일 24시까지 (UTC)
여러 방향의 바람 5kt
시정: 6000m
고도 600ft 상공 구름 많음
고도 1600ft 상공 구름 조금, 적란운.
뇌우, 약한비
전환 중
20일 20시부터 20일 22시까지 (UTC)
일시적
21일 00시부터 21일 07시까지 (UTC)
시정: 0800m
안개
전환 중
21일 08시부터 21일 10시까지 (UTC)
고도 1600ft 상공 구름 많음

TAF: FKYS 201700Z 2018/2124 VRB05KT 6000 -TSRA BKN006 FEW016CB BECMG 2020/2022 NSW TEMPO 2100/2107 0800 FG BECMG 2108/2110 BKN016

4,000개 이상의 공항 관측 자료 및 예보 (METAR 및 TAF 보고).

지도상에서 검색 가능한 기상관측소가 노란 점과 빨간 점으로 표시되어 있습니다.

기상관측소 명을 보려면 표시 위로 마우스를 이동하세요.

날씨 관측과 예보를 보려면 클릭하세요.

지도 변경 : 확대하려면 엑스 표시가 있는 녹색 버튼, 축소하려면 빼기 표시가 있는 녹색 버튼, 다음 페이지의 지도를 보려면 녹색 화살표를 클릭하세요.


METAR-TAF: